sensor_id;sensor_type;location;lat;lon;timestamp;P1;durP1;ratioP1;P2;durP2;ratioP2
6626;SDS011;3349;49.830;8.748;2023-04-03T00:01:38;5.40;;;3.40;;
6626;SDS011;3349;49.830;8.748;2023-04-03T00:04:06;3.90;;;3.50;;
6626;SDS011;3349;49.830;8.748;2023-04-03T00:06:33;3.60;;;3.05;;
6626;SDS011;3349;49.830;8.748;2023-04-03T00:09:00;6.15;;;3.45;;
6626;SDS011;3349;49.830;8.748;2023-04-03T00:11:29;6.30;;;3.70;;
6626;SDS011;3349;49.830;8.748;2023-04-03T00:13:55;5.18;;;3.42;;
6626;SDS011;3349;49.830;8.748;2023-04-03T00:16:22;5.13;;;3.30;;
6626;SDS011;3349;49.830;8.748;2023-04-03T00:18:49;4.97;;;3.03;;
6626;SDS011;3349;49.830;8.748;2023-04-03T00:21:16;4.20;;;3.57;;
6626;SDS011;3349;49.830;8.748;2023-04-03T00:23:43;3.63;;;3.20;;
6626;SDS011;3349;49.830;8.748;2023-04-03T00:26:09;6.30;;;3.35;;
6626;SDS011;3349;49.830;8.748;2023-04-03T00:28:38;4.23;;;3.50;;
6626;SDS011;3349;49.830;8.748;2023-04-03T00:31:05;3.83;;;3.30;;
6626;SDS011;3349;49.830;8.748;2023-04-03T00:33:31;5.67;;;3.60;;
6626;SDS011;3349;49.830;8.748;2023-04-03T00:35:58;5.07;;;3.45;;
6626;SDS011;3349;49.830;8.748;2023-04-03T00:38:25;5.67;;;3.67;;
6626;SDS011;3349;49.830;8.748;2023-04-03T00:40:52;5.93;;;3.40;;
6626;SDS011;3349;49.830;8.748;2023-04-03T00:43:19;3.67;;;3.27;;
6626;SDS011;3349;49.830;8.748;2023-04-03T00:45:49;4.93;;;3.10;;
6626;SDS011;3349;49.830;8.748;2023-04-03T00:48:18;6.72;;;3.13;;
6626;SDS011;3349;49.830;8.748;2023-04-03T00:50:47;4.17;;;3.37;;
6626;SDS011;3349;49.830;8.748;2023-04-03T00:53:16;3.93;;;3.30;;
6626;SDS011;3349;49.830;8.748;2023-04-03T00:55:48;4.63;;;3.00;;
6626;SDS011;3349;49.830;8.748;2023-04-03T00:58:16;5.68;;;3.20;;
6626;SDS011;3349;49.830;8.748;2023-04-03T01:00:47;4.77;;;3.80;;
6626;SDS011;3349;49.830;8.748;2023-04-03T01:03:22;5.27;;;3.80;;
6626;SDS011;3349;49.830;8.748;2023-04-03T01:05:49;6.43;;;4.03;;
6626;SDS011;3349;49.830;8.748;2023-04-03T01:08:16;8.03;;;4.03;;
6626;SDS011;3349;49.830;8.748;2023-04-03T01:10:43;6.13;;;4.07;;
6626;SDS011;3349;49.830;8.748;2023-04-03T01:13:20;5.97;;;4.00;;
6626;SDS011;3349;49.830;8.748;2023-04-03T01:15:50;4.33;;;3.60;;
6626;SDS011;3349;49.830;8.748;2023-04-03T01:18:17;4.70;;;3.70;;
6626;SDS011;3349;49.830;8.748;2023-04-03T01:20:57;5.03;;;3.70;;
6626;SDS011;3349;49.830;8.748;2023-04-03T01:23:46;4.50;;;3.83;;
6626;SDS011;3349;49.830;8.748;2023-04-03T01:26:21;4.43;;;3.87;;
6626;SDS011;3349;49.830;8.748;2023-04-03T01:28:48;5.10;;;4.00;;
6626;SDS011;3349;49.830;8.748;2023-04-03T01:31:18;6.13;;;3.60;;
6626;SDS011;3349;49.830;8.748;2023-04-03T01:33:51;4.77;;;3.83;;
6626;SDS011;3349;49.830;8.748;2023-04-03T01:36:19;5.73;;;3.60;;
6626;SDS011;3349;49.830;8.748;2023-04-03T01:38:47;6.70;;;3.70;;
6626;SDS011;3349;49.830;8.748;2023-04-03T01:41:14;4.43;;;4.00;;
6626;SDS011;3349;49.830;8.748;2023-04-03T01:43:41;5.67;;;4.00;;
6626;SDS011;3349;49.830;8.748;2023-04-03T01:46:08;5.70;;;4.43;;
6626;SDS011;3349;49.830;8.748;2023-04-03T01:48:35;8.32;;;4.82;;
6626;SDS011;3349;49.830;8.748;2023-04-03T01:51:03;5.80;;;3.87;;
6626;SDS011;3349;49.830;8.748;2023-04-03T01:53:30;5.77;;;4.57;;
6626;SDS011;3349;49.830;8.748;2023-04-03T01:55:56;4.57;;;4.00;;
6626;SDS011;3349;49.830;8.748;2023-04-03T01:58:23;4.90;;;4.03;;
6626;SDS011;3349;49.830;8.748;2023-04-03T02:00:50;6.83;;;4.00;;
6626;SDS011;3349;49.830;8.748;2023-04-03T02:03:17;5.77;;;3.93;;
6626;SDS011;3349;49.830;8.748;2023-04-03T02:05:44;5.57;;;3.90;;
6626;SDS011;3349;49.830;8.748;2023-04-03T02:08:12;4.70;;;3.63;;
6626;SDS011;3349;49.830;8.748;2023-04-03T02:10:39;7.03;;;3.93;;
6626;SDS011;3349;49.830;8.748;2023-04-03T02:13:06;5.77;;;4.27;;
6626;SDS011;3349;49.830;8.748;2023-04-03T02:15:32;4.87;;;4.00;;
6626;SDS011;3349;49.830;8.748;2023-04-03T02:17:59;6.47;;;3.80;;
6626;SDS011;3349;49.830;8.748;2023-04-03T02:20:26;6.43;;;4.32;;
6626;SDS011;3349;49.830;8.748;2023-04-03T02:22:53;4.97;;;3.90;;
6626;SDS011;3349;49.830;8.748;2023-04-03T02:25:21;6.78;;;4.15;;
6626;SDS011;3349;49.830;8.748;2023-04-03T02:27:48;5.83;;;4.13;;
6626;SDS011;3349;49.830;8.748;2023-04-03T02:30:14;6.80;;;4.10;;
6626;SDS011;3349;49.830;8.748;2023-04-03T02:32:41;6.37;;;4.03;;
6626;SDS011;3349;49.830;8.748;2023-04-03T02:35:09;4.63;;;3.93;;
6626;SDS011;3349;49.830;8.748;2023-04-03T02:37:36;6.38;;;4.25;;
6626;SDS011;3349;49.830;8.748;2023-04-03T02:40:03;4.60;;;4.10;;
6626;SDS011;3349;49.830;8.748;2023-04-03T02:42:32;5.90;;;3.80;;
6626;SDS011;3349;49.830;8.748;2023-04-03T02:44:59;7.70;;;4.03;;
6626;SDS011;3349;49.830;8.748;2023-04-03T02:47:26;5.10;;;3.60;;
6626;SDS011;3349;49.830;8.748;2023-04-03T02:49:53;5.23;;;4.00;;
6626;SDS011;3349;49.830;8.748;2023-04-03T02:52:20;5.57;;;4.07;;
6626;SDS011;3349;49.830;8.748;2023-04-03T02:54:47;5.40;;;3.60;;
6626;SDS011;3349;49.830;8.748;2023-04-03T02:57:13;4.40;;;4.00;;
6626;SDS011;3349;49.830;8.748;2023-04-03T02:59:42;7.47;;;4.60;;
6626;SDS011;3349;49.830;8.748;2023-04-03T03:02:09;6.47;;;4.80;;
6626;SDS011;3349;49.830;8.748;2023-04-03T03:04:36;7.07;;;4.77;;
6626;SDS011;3349;49.830;8.748;2023-04-03T03:07:03;7.97;;;5.00;;
6626;SDS011;3349;49.830;8.748;2023-04-03T03:09:30;6.73;;;4.60;;
6626;SDS011;3349;49.830;8.748;2023-04-03T03:11:57;4.33;;;3.93;;
6626;SDS011;3349;49.830;8.748;2023-04-03T03:14:25;5.23;;;4.23;;
6626;SDS011;3349;49.830;8.748;2023-04-03T03:16:53;5.07;;;4.03;;
6626;SDS011;3349;49.830;8.748;2023-04-03T03:19:19;4.10;;;3.70;;
6626;SDS011;3349;49.830;8.748;2023-04-03T03:21:46;5.73;;;4.00;;
6626;SDS011;3349;49.830;8.748;2023-04-03T03:26:44;5.00;;;4.10;;
6626;SDS011;3349;49.830;8.748;2023-04-03T03:29:11;14.73;;;9.53;;
6626;SDS011;3349;49.830;8.748;2023-04-03T03:31:37;23.17;;;14.73;;
6626;SDS011;3349;49.830;8.748;2023-04-03T03:34:05;107.43;;;52.67;;
6626;SDS011;3349;49.830;8.748;2023-04-03T03:36:32;64.43;;;36.67;;
6626;SDS011;3349;49.830;8.748;2023-04-03T03:38:59;77.83;;;42.87;;
6626;SDS011;3349;49.830;8.748;2023-04-03T03:41:26;69.93;;;35.63;;
6626;SDS011;3349;49.830;8.748;2023-04-03T03:43:52;49.37;;;27.37;;
6626;SDS011;3349;49.830;8.748;2023-04-03T03:46:19;34.70;;;19.30;;
6626;SDS011;3349;49.830;8.748;2023-04-03T03:48:46;20.47;;;11.90;;
6626;SDS011;3349;49.830;8.748;2023-04-03T03:51:14;15.40;;;8.97;;
6626;SDS011;3349;49.830;8.748;2023-04-03T03:53:41;9.90;;;5.77;;
6626;SDS011;3349;49.830;8.748;2023-04-03T03:56:08;6.90;;;4.27;;
6626;SDS011;3349;49.830;8.748;2023-04-03T03:58:35;4.63;;;3.30;;
6626;SDS011;3349;49.830;8.748;2023-04-03T04:01:02;4.27;;;3.40;;
6626;SDS011;3349;49.830;8.748;2023-04-03T04:03:30;4.63;;;3.20;;
6626;SDS011;3349;49.830;8.748;2023-04-03T04:05:57;4.93;;;3.60;;
6626;SDS011;3349;49.830;8.748;2023-04-03T04:08:25;4.37;;;3.70;;
6626;SDS011;3349;49.830;8.748;2023-04-03T04:10:52;10.80;;;5.27;;
6626;SDS011;3349;49.830;8.748;2023-04-03T04:13:18;8.13;;;4.40;;
6626;SDS011;3349;49.830;8.748;2023-04-03T04:15:45;6.43;;;3.80;;
6626;SDS011;3349;49.830;8.748;2023-04-03T04:18:12;7.37;;;3.70;;
6626;SDS011;3349;49.830;8.748;2023-04-03T04:20:39;7.77;;;3.50;;
6626;SDS011;3349;49.830;8.748;2023-04-03T04:23:06;5.30;;;3.60;;
6626;SDS011;3349;49.830;8.748;2023-04-03T04:25:34;4.43;;;2.70;;
6626;SDS011;3349;49.830;8.748;2023-04-03T04:28:00;5.57;;;3.20;;
6626;SDS011;3349;49.830;8.748;2023-04-03T04:30:27;4.53;;;3.20;;
6626;SDS011;3349;49.830;8.748;2023-04-03T04:32:54;5.33;;;3.20;;
6626;SDS011;3349;49.830;8.748;2023-04-03T04:35:21;5.90;;;2.80;;
6626;SDS011;3349;49.830;8.748;2023-04-03T04:37:47;4.87;;;2.90;;
6626;SDS011;3349;49.830;8.748;2023-04-03T04:40:15;4.40;;;2.60;;
6626;SDS011;3349;49.830;8.748;2023-04-03T04:42:43;5.97;;;3.57;;
6626;SDS011;3349;49.830;8.748;2023-04-03T04:45:10;7.27;;;2.93;;
6626;SDS011;3349;49.830;8.748;2023-04-03T04:47:36;3.37;;;2.70;;
6626;SDS011;3349;49.830;8.748;2023-04-03T04:50:03;5.77;;;2.90;;
6626;SDS011;3349;49.830;8.748;2023-04-03T04:52:31;5.23;;;3.00;;
6626;SDS011;3349;49.830;8.748;2023-04-03T04:54:58;8.80;;;3.27;;
6626;SDS011;3349;49.830;8.748;2023-04-03T04:57:25;5.87;;;2.90;;
6626;SDS011;3349;49.830;8.748;2023-04-03T04:59:53;6.47;;;3.10;;
6626;SDS011;3349;49.830;8.748;2023-04-03T05:02:20;5.63;;;2.63;;
6626;SDS011;3349;49.830;8.748;2023-04-03T05:04:47;6.13;;;2.97;;
6626;SDS011;3349;49.830;8.748;2023-04-03T05:07:15;7.03;;;2.90;;
6626;SDS011;3349;49.830;8.748;2023-04-03T05:09:41;4.47;;;3.23;;
6626;SDS011;3349;49.830;8.748;2023-04-03T05:12:08;3.65;;;2.40;;
6626;SDS011;3349;49.830;8.748;2023-04-03T05:14:35;6.50;;;2.97;;
6626;SDS011;3349;49.830;8.748;2023-04-03T05:17:03;6.43;;;2.70;;
6626;SDS011;3349;49.830;8.748;2023-04-03T05:19:30;6.67;;;2.77;;
6626;SDS011;3349;49.830;8.748;2023-04-03T05:21:56;6.60;;;2.60;;
6626;SDS011;3349;49.830;8.748;2023-04-03T05:24:23;5.93;;;2.70;;
6626;SDS011;3349;49.830;8.748;2023-04-03T05:26:51;5.95;;;2.83;;
6626;SDS011;3349;49.830;8.748;2023-04-03T05:29:17;6.40;;;2.72;;
6626;SDS011;3349;49.830;8.748;2023-04-03T05:31:44;6.32;;;2.60;;
6626;SDS011;3349;49.830;8.748;2023-04-03T05:34:12;4.88;;;2.58;;
6626;SDS011;3349;49.830;8.748;2023-04-03T05:36:39;5.23;;;2.93;;
6626;SDS011;3349;49.830;8.748;2023-04-03T05:39:06;4.10;;;2.10;;
6626;SDS011;3349;49.830;8.748;2023-04-03T05:41:33;7.00;;;2.33;;
6626;SDS011;3349;49.830;8.748;2023-04-03T05:44:00;6.03;;;2.83;;
6626;SDS011;3349;49.830;8.748;2023-04-03T05:46:26;5.53;;;2.43;;
6626;SDS011;3349;49.830;8.748;2023-04-03T05:48:53;4.50;;;2.53;;
6626;SDS011;3349;49.830;8.748;2023-04-03T05:51:23;6.70;;;2.77;;
6626;SDS011;3349;49.830;8.748;2023-04-03T05:53:55;4.88;;;2.33;;
6626;SDS011;3349;49.830;8.748;2023-04-03T05:56:26;5.17;;;2.27;;
6626;SDS011;3349;49.830;8.748;2023-04-03T05:58:53;4.90;;;2.22;;
6626;SDS011;3349;49.830;8.748;2023-04-03T06:01:20;4.80;;;2.58;;
6626;SDS011;3349;49.830;8.748;2023-04-03T06:03:46;4.43;;;2.47;;
6626;SDS011;3349;49.830;8.748;2023-04-03T06:06:13;5.95;;;2.20;;
6626;SDS011;3349;49.830;8.748;2023-04-03T06:08:42;5.10;;;2.22;;
6626;SDS011;3349;49.830;8.748;2023-04-03T06:11:09;5.78;;;2.45;;
6626;SDS011;3349;49.830;8.748;2023-04-03T06:13:36;3.95;;;2.20;;
6626;SDS011;3349;49.830;8.748;2023-04-03T06:16:04;9.02;;;2.60;;
6626;SDS011;3349;49.830;8.748;2023-04-03T06:18:31;4.40;;;2.10;;
6626;SDS011;3349;49.830;8.748;2023-04-03T06:20:58;4.28;;;2.22;;
6626;SDS011;3349;49.830;8.748;2023-04-03T06:23:25;6.75;;;2.38;;
6626;SDS011;3349;49.830;8.748;2023-04-03T06:25:54;6.10;;;2.97;;
6626;SDS011;3349;49.830;8.748;2023-04-03T06:28:20;6.63;;;2.67;;
6626;SDS011;3349;49.830;8.748;2023-04-03T06:30:47;5.45;;;2.00;;
6626;SDS011;3349;49.830;8.748;2023-04-03T06:33:14;7.00;;;2.75;;
6626;SDS011;3349;49.830;8.748;2023-04-03T06:35:40;4.63;;;2.60;;
6626;SDS011;3349;49.830;8.748;2023-04-03T06:38:07;5.45;;;2.47;;
6626;SDS011;3349;49.830;8.748;2023-04-03T06:40:35;7.07;;;2.70;;
6626;SDS011;3349;49.830;8.748;2023-04-03T06:43:03;3.50;;;2.05;;
6626;SDS011;3349;49.830;8.748;2023-04-03T06:45:30;7.20;;;2.72;;
6626;SDS011;3349;49.830;8.748;2023-04-03T06:47:57;4.80;;;2.47;;
6626;SDS011;3349;49.830;8.748;2023-04-03T06:50:23;4.13;;;2.13;;
6626;SDS011;3349;49.830;8.748;2023-04-03T06:52:51;4.97;;;2.50;;
6626;SDS011;3349;49.830;8.748;2023-04-03T06:55:17;4.95;;;2.60;;
6626;SDS011;3349;49.830;8.748;2023-04-03T06:57:44;5.03;;;2.30;;
6626;SDS011;3349;49.830;8.748;2023-04-03T07:00:13;10.02;;;2.42;;
6626;SDS011;3349;49.830;8.748;2023-04-03T07:02:41;5.35;;;2.75;;
6626;SDS011;3349;49.830;8.748;2023-04-03T07:05:08;4.88;;;2.53;;
6626;SDS011;3349;49.830;8.748;2023-04-03T07:07:35;5.57;;;2.67;;
6626;SDS011;3349;49.830;8.748;2023-04-03T07:10:03;6.78;;;3.05;;
6626;SDS011;3349;49.830;8.748;2023-04-03T07:12:30;5.88;;;2.80;;
6626;SDS011;3349;49.830;8.748;2023-04-03T07:14:57;5.22;;;3.30;;
6626;SDS011;3349;49.830;8.748;2023-04-03T07:17:25;8.30;;;3.22;;
6626;SDS011;3349;49.830;8.748;2023-04-03T07:19:52;5.72;;;3.55;;
6626;SDS011;3349;49.830;8.748;2023-04-03T07:22:18;6.47;;;3.50;;
6626;SDS011;3349;49.830;8.748;2023-04-03T07:24:45;3.83;;;2.40;;
6626;SDS011;3349;49.830;8.748;2023-04-03T07:27:12;7.68;;;2.63;;
6626;SDS011;3349;49.830;8.748;2023-04-03T07:29:39;5.35;;;2.63;;
6626;SDS011;3349;49.830;8.748;2023-04-03T07:32:06;7.38;;;3.78;;
6626;SDS011;3349;49.830;8.748;2023-04-03T07:34:34;6.45;;;2.17;;
6626;SDS011;3349;49.830;8.748;2023-04-03T07:37:01;5.13;;;2.22;;
6626;SDS011;3349;49.830;8.748;2023-04-03T07:39:29;5.45;;;2.60;;
6626;SDS011;3349;49.830;8.748;2023-04-03T07:41:56;4.88;;;2.47;;
6626;SDS011;3349;49.830;8.748;2023-04-03T07:44:23;6.00;;;3.05;;
6626;SDS011;3349;49.830;8.748;2023-04-03T07:46:50;4.70;;;2.42;;
6626;SDS011;3349;49.830;8.748;2023-04-03T07:49:16;5.72;;;2.88;;
6626;SDS011;3349;49.830;8.748;2023-04-03T07:51:45;3.85;;;2.30;;
6626;SDS011;3349;49.830;8.748;2023-04-03T07:54:12;5.30;;;2.10;;
6626;SDS011;3349;49.830;8.748;2023-04-03T07:56:38;4.10;;;2.63;;
6626;SDS011;3349;49.830;8.748;2023-04-03T07:59:05;6.38;;;2.97;;
6626;SDS011;3349;49.830;8.748;2023-04-03T08:01:32;6.38;;;3.42;;
6626;SDS011;3349;49.830;8.748;2023-04-03T08:03:59;6.40;;;3.08;;
6626;SDS011;3349;49.830;8.748;2023-04-03T08:06:26;7.63;;;3.63;;
6626;SDS011;3349;49.830;8.748;2023-04-03T08:08:55;4.75;;;1.80;;
6626;SDS011;3349;49.830;8.748;2023-04-03T08:11:22;3.72;;;2.67;;
6626;SDS011;3349;49.830;8.748;2023-04-03T08:13:51;2.67;;;2.20;;
6626;SDS011;3349;49.830;8.748;2023-04-03T08:16:20;6.50;;;2.08;;
6626;SDS011;3349;49.830;8.748;2023-04-03T08:18:48;4.10;;;2.13;;
6626;SDS011;3349;49.830;8.748;2023-04-03T08:21:16;4.68;;;2.20;;
6626;SDS011;3349;49.830;8.748;2023-04-03T08:23:43;7.40;;;2.42;;
6626;SDS011;3349;49.830;8.748;2023-04-03T08:26:13;6.30;;;2.63;;
6626;SDS011;3349;49.830;8.748;2023-04-03T08:28:41;3.65;;;1.88;;
6626;SDS011;3349;49.830;8.748;2023-04-03T08:31:09;6.80;;;2.70;;
6626;SDS011;3349;49.830;8.748;2023-04-03T08:33:39;5.22;;;2.45;;
6626;SDS011;3349;49.830;8.748;2023-04-03T08:36:07;4.78;;;2.10;;
6626;SDS011;3349;49.830;8.748;2023-04-03T08:38:43;5.72;;;2.33;;
6626;SDS011;3349;49.830;8.748;2023-04-03T08:41:13;4.55;;;2.50;;
6626;SDS011;3349;49.830;8.748;2023-04-03T08:43:46;3.90;;;2.00;;
6626;SDS011;3349;49.830;8.748;2023-04-03T08:46:24;3.78;;;2.03;;
6626;SDS011;3349;49.830;8.748;2023-04-03T08:49:02;3.40;;;1.83;;
6626;SDS011;3349;49.830;8.748;2023-04-03T08:51:29;4.45;;;2.22;;
6626;SDS011;3349;49.830;8.748;2023-04-03T08:53:59;4.93;;;1.92;;
6626;SDS011;3349;49.830;8.748;2023-04-03T08:56:31;3.17;;;2.22;;
6626;SDS011;3349;49.830;8.748;2023-04-03T08:59:00;4.78;;;2.80;;
6626;SDS011;3349;49.830;8.748;2023-04-03T09:01:33;7.95;;;2.88;;
6626;SDS011;3349;49.830;8.748;2023-04-03T09:04:02;4.78;;;2.10;;
6626;SDS011;3349;49.830;8.748;2023-04-03T09:06:36;3.75;;;2.10;;
6626;SDS011;3349;49.830;8.748;2023-04-03T09:09:07;4.32;;;2.10;;
6626;SDS011;3349;49.830;8.748;2023-04-03T09:11:44;3.95;;;2.28;;
6626;SDS011;3349;49.830;8.748;2023-04-03T09:14:19;4.75;;;2.08;;
6626;SDS011;3349;49.830;8.748;2023-04-03T09:16:53;3.10;;;2.15;;
6626;SDS011;3349;49.830;8.748;2023-04-03T09:19:24;5.18;;;2.10;;
6626;SDS011;3349;49.830;8.748;2023-04-03T09:21:57;4.38;;;2.03;;
6626;SDS011;3349;49.830;8.748;2023-04-03T09:24:25;4.35;;;2.08;;
6626;SDS011;3349;49.830;8.748;2023-04-03T09:26:55;3.17;;;2.10;;
6626;SDS011;3349;49.830;8.748;2023-04-03T09:29:25;3.92;;;1.90;;
6626;SDS011;3349;49.830;8.748;2023-04-03T09:31:53;2.78;;;1.60;;
6626;SDS011;3349;49.830;8.748;2023-04-03T09:34:23;4.97;;;2.40;;
6626;SDS011;3349;49.830;8.748;2023-04-03T09:36:53;2.90;;;2.10;;
6626;SDS011;3349;49.830;8.748;2023-04-03T09:39:22;4.00;;;2.33;;
6626;SDS011;3349;49.830;8.748;2023-04-03T09:41:56;5.43;;;2.50;;
6626;SDS011;3349;49.830;8.748;2023-04-03T09:44:25;4.03;;;2.35;;
6626;SDS011;3349;49.830;8.748;2023-04-03T09:46:54;3.58;;;2.50;;
6626;SDS011;3349;49.830;8.748;2023-04-03T09:49:20;5.43;;;3.15;;
6626;SDS011;3349;49.830;8.748;2023-04-03T09:51:47;3.90;;;2.65;;
6626;SDS011;3349;49.830;8.748;2023-04-03T09:54:24;5.85;;;2.70;;
6626;SDS011;3349;49.830;8.748;2023-04-03T09:56:58;3.80;;;2.10;;
6626;SDS011;3349;49.830;8.748;2023-04-03T09:59:30;4.75;;;2.33;;
6626;SDS011;3349;49.830;8.748;2023-04-03T10:01:58;3.80;;;2.42;;
6626;SDS011;3349;49.830;8.748;2023-04-03T10:04:36;4.35;;;2.13;;
6626;SDS011;3349;49.830;8.748;2023-04-03T10:07:08;3.08;;;2.10;;
6626;SDS011;3349;49.830;8.748;2023-04-03T10:09:54;2.92;;;2.10;;
6626;SDS011;3349;49.830;8.748;2023-04-03T10:12:23;4.72;;;2.38;;
6626;SDS011;3349;49.830;8.748;2023-04-03T10:14:54;4.10;;;2.03;;
6626;SDS011;3349;49.830;8.748;2023-04-03T10:17:24;3.55;;;2.30;;
6626;SDS011;3349;49.830;8.748;2023-04-03T10:20:00;6.32;;;2.28;;
6626;SDS011;3349;49.830;8.748;2023-04-03T10:22:36;4.55;;;2.78;;
6626;SDS011;3349;49.830;8.748;2023-04-03T10:25:10;3.22;;;2.40;;
6626;SDS011;3349;49.830;8.748;2023-04-03T10:27:47;6.25;;;2.38;;
6626;SDS011;3349;49.830;8.748;2023-04-03T10:30:29;3.80;;;2.20;;
6626;SDS011;3349;49.830;8.748;2023-04-03T10:33:05;5.00;;;3.00;;
6626;SDS011;3349;49.830;8.748;2023-04-03T10:35:46;5.72;;;3.53;;
6626;SDS011;3349;49.830;8.748;2023-04-03T10:38:23;6.65;;;3.78;;
6626;SDS011;3349;49.830;8.748;2023-04-03T10:40:59;5.15;;;2.33;;
6626;SDS011;3349;49.830;8.748;2023-04-03T10:43:36;5.80;;;3.25;;
6626;SDS011;3349;49.830;8.748;2023-04-03T10:46:10;5.43;;;3.20;;
6626;SDS011;3349;49.830;8.748;2023-04-03T10:48:45;5.55;;;4.00;;
6626;SDS011;3349;49.830;8.748;2023-04-03T10:51:24;9.63;;;5.43;;
6626;SDS011;3349;49.830;8.748;2023-04-03T10:53:56;9.15;;;4.57;;
6626;SDS011;3349;49.830;8.748;2023-04-03T10:56:30;5.03;;;2.40;;
6626;SDS011;3349;49.830;8.748;2023-04-03T10:59:05;4.35;;;2.30;;
6626;SDS011;3349;49.830;8.748;2023-04-03T11:01:42;3.08;;;2.03;;
6626;SDS011;3349;49.830;8.748;2023-04-03T11:04:12;3.40;;;2.25;;
6626;SDS011;3349;49.830;8.748;2023-04-03T11:06:42;4.47;;;2.60;;
6626;SDS011;3349;49.830;8.748;2023-04-03T11:09:16;5.13;;;2.92;;
6626;SDS011;3349;49.830;8.748;2023-04-03T11:11:49;5.63;;;2.95;;
6626;SDS011;3349;49.830;8.748;2023-04-03T11:14:22;3.97;;;2.40;;
6626;SDS011;3349;49.830;8.748;2023-04-03T11:16:55;4.43;;;2.38;;
6626;SDS011;3349;49.830;8.748;2023-04-03T11:19:33;3.85;;;2.65;;
6626;SDS011;3349;49.830;8.748;2023-04-03T11:22:03;5.20;;;2.33;;
6626;SDS011;3349;49.830;8.748;2023-04-03T11:24:36;2.92;;;2.10;;
6626;SDS011;3349;49.830;8.748;2023-04-03T11:27:08;4.88;;;2.88;;
6626;SDS011;3349;49.830;8.748;2023-04-03T11:29:43;4.18;;;2.38;;
6626;SDS011;3349;49.830;8.748;2023-04-03T11:32:17;4.28;;;2.20;;
6626;SDS011;3349;49.830;8.748;2023-04-03T11:34:56;6.03;;;3.88;;
6626;SDS011;3349;49.830;8.748;2023-04-03T11:37:26;5.18;;;2.80;;
6626;SDS011;3349;49.830;8.748;2023-04-03T11:39:59;3.55;;;2.50;;
6626;SDS011;3349;49.830;8.748;2023-04-03T11:42:31;3.58;;;2.60;;
6626;SDS011;3349;49.830;8.748;2023-04-03T11:48:04;3.42;;;2.40;;
6626;SDS011;3349;49.830;8.748;2023-04-03T11:50:43;6.93;;;2.45;;
6626;SDS011;3349;49.830;8.748;2023-04-03T11:53:27;3.08;;;2.22;;
6626;SDS011;3349;49.830;8.748;2023-04-03T11:55:57;3.70;;;2.58;;
6626;SDS011;3349;49.830;8.748;2023-04-03T11:58:26;2.78;;;2.00;;
6626;SDS011;3349;49.830;8.748;2023-04-03T12:01:06;3.03;;;2.25;;
6626;SDS011;3349;49.830;8.748;2023-04-03T12:12:29;3.80;;;2.50;;
6626;SDS011;3349;49.830;8.748;2023-04-03T12:15:18;3.20;;;2.50;;
6626;SDS011;3349;49.830;8.748;2023-04-03T12:21:18;3.03;;;2.15;;
6626;SDS011;3349;49.830;8.748;2023-04-03T12:23:57;2.70;;;2.15;;
6626;SDS011;3349;49.830;8.748;2023-04-03T12:26:27;2.30;;;2.10;;
6626;SDS011;3349;49.830;8.748;2023-04-03T12:28:58;3.85;;;2.50;;
6626;SDS011;3349;49.830;8.748;2023-04-03T12:31:32;3.83;;;2.20;;
6626;SDS011;3349;49.830;8.748;2023-04-03T12:34:18;3.63;;;2.20;;
6626;SDS011;3349;49.830;8.748;2023-04-03T12:36:58;3.63;;;2.13;;
6626;SDS011;3349;49.830;8.748;2023-04-03T12:39:34;3.72;;;2.40;;
6626;SDS011;3349;49.830;8.748;2023-04-03T12:42:22;3.63;;;2.35;;
6626;SDS011;3349;49.830;8.748;2023-04-03T12:45:00;3.35;;;2.30;;
6626;SDS011;3349;49.830;8.748;2023-04-03T12:47:36;3.15;;;2.33;;
6626;SDS011;3349;49.830;8.748;2023-04-03T12:50:15;2.28;;;2.00;;
6626;SDS011;3349;49.830;8.748;2023-04-03T12:52:47;3.38;;;2.20;;
6626;SDS011;3349;49.830;8.748;2023-04-03T12:55:21;3.35;;;2.22;;
6626;SDS011;3349;49.830;8.748;2023-04-03T12:57:48;2.47;;;2.28;;
6626;SDS011;3349;49.830;8.748;2023-04-03T13:00:19;3.40;;;2.10;;
6626;SDS011;3349;49.830;8.748;2023-04-03T13:02:47;2.78;;;1.90;;
6626;SDS011;3349;49.830;8.748;2023-04-03T13:05:16;3.35;;;2.25;;
6626;SDS011;3349;49.830;8.748;2023-04-03T13:07:49;5.18;;;2.08;;
6626;SDS011;3349;49.830;8.748;2023-04-03T13:10:18;2.90;;;2.15;;
6626;SDS011;3349;49.830;8.748;2023-04-03T13:12:47;4.60;;;2.00;;
6626;SDS011;3349;49.830;8.748;2023-04-03T13:15:19;2.40;;;1.90;;
6626;SDS011;3349;49.830;8.748;2023-04-03T13:17:47;2.65;;;2.10;;
6626;SDS011;3349;49.830;8.748;2023-04-03T13:20:20;2.75;;;1.88;;
6626;SDS011;3349;49.830;8.748;2023-04-03T13:22:51;4.70;;;2.10;;
6626;SDS011;3349;49.830;8.748;2023-04-03T13:25:23;2.00;;;1.80;;
6626;SDS011;3349;49.830;8.748;2023-04-03T13:27:52;3.25;;;2.15;;
6626;SDS011;3349;49.830;8.748;2023-04-03T13:30:21;5.10;;;2.20;;
6626;SDS011;3349;49.830;8.748;2023-04-03T13:32:51;3.38;;;2.03;;
6626;SDS011;3349;49.830;8.748;2023-04-03T13:35:26;2.20;;;1.85;;
6626;SDS011;3349;49.830;8.748;2023-04-03T13:38:00;3.53;;;1.95;;
6626;SDS011;3349;49.830;8.748;2023-04-03T13:40:30;5.15;;;2.70;;
6626;SDS011;3349;49.830;8.748;2023-04-03T13:43:01;2.95;;;1.77;;
6626;SDS011;3349;49.830;8.748;2023-04-03T13:45:31;5.22;;;2.05;;
6626;SDS011;3349;49.830;8.748;2023-04-03T13:48:10;4.57;;;2.03;;
6626;SDS011;3349;49.830;8.748;2023-04-03T13:53:30;3.00;;;1.80;;
6626;SDS011;3349;49.830;8.748;2023-04-03T13:56:00;4.22;;;2.00;;
6626;SDS011;3349;49.830;8.748;2023-04-03T13:58:35;3.63;;;1.98;;
6626;SDS011;3349;49.830;8.748;2023-04-03T14:01:08;2.45;;;1.73;;
6626;SDS011;3349;49.830;8.748;2023-04-03T14:03:39;3.10;;;1.95;;
6626;SDS011;3349;49.830;8.748;2023-04-03T14:06:10;2.88;;;1.60;;
6626;SDS011;3349;49.830;8.748;2023-04-03T14:08:40;2.42;;;1.80;;
6626;SDS011;3349;49.830;8.748;2023-04-03T14:11:09;2.42;;;1.85;;
6626;SDS011;3349;49.830;8.748;2023-04-03T14:13:40;3.05;;;1.90;;
6626;SDS011;3349;49.830;8.748;2023-04-03T14:16:07;2.13;;;1.65;;
6626;SDS011;3349;49.830;8.748;2023-04-03T14:18:38;3.58;;;2.00;;
6626;SDS011;3349;49.830;8.748;2023-04-03T14:21:05;2.63;;;1.90;;
6626;SDS011;3349;49.830;8.748;2023-04-03T14:23:32;4.45;;;1.90;;
6626;SDS011;3349;49.830;8.748;2023-04-03T14:26:01;2.92;;;2.03;;
6626;SDS011;3349;49.830;8.748;2023-04-03T14:28:28;3.30;;;2.05;;
6626;SDS011;3349;49.830;8.748;2023-04-03T14:30:57;1.90;;;1.70;;
6626;SDS011;3349;49.830;8.748;2023-04-03T14:33:24;2.80;;;1.80;;
6626;SDS011;3349;49.830;8.748;2023-04-03T14:35:52;2.47;;;1.80;;
6626;SDS011;3349;49.830;8.748;2023-04-03T14:38:21;3.53;;;1.90;;
6626;SDS011;3349;49.830;8.748;2023-04-03T14:40:50;4.28;;;2.10;;
6626;SDS011;3349;49.830;8.748;2023-04-03T14:43:19;2.45;;;2.00;;
6626;SDS011;3349;49.830;8.748;2023-04-03T14:45:47;2.63;;;1.95;;
6626;SDS011;3349;49.830;8.748;2023-04-03T14:48:16;3.55;;;1.92;;
6626;SDS011;3349;49.830;8.748;2023-04-03T14:50:45;3.25;;;2.00;;
6626;SDS011;3349;49.830;8.748;2023-04-03T14:53:12;3.83;;;2.13;;
6626;SDS011;3349;49.830;8.748;2023-04-03T14:55:39;5.85;;;2.30;;
6626;SDS011;3349;49.830;8.748;2023-04-03T14:58:08;4.22;;;2.00;;
6626;SDS011;3349;49.830;8.748;2023-04-03T15:00:39;3.63;;;2.15;;
6626;SDS011;3349;49.830;8.748;2023-04-03T15:03:08;3.08;;;2.10;;
6626;SDS011;3349;49.830;8.748;2023-04-03T15:05:38;3.60;;;2.05;;
6626;SDS011;3349;49.830;8.748;2023-04-03T15:08:08;4.55;;;2.08;;
6626;SDS011;3349;49.830;8.748;2023-04-03T15:10:42;3.33;;;1.90;;
6626;SDS011;3349;49.830;8.748;2023-04-03T15:13:10;2.42;;;1.70;;
6626;SDS011;3349;49.830;8.748;2023-04-03T15:15:39;4.07;;;2.80;;
6626;SDS011;3349;49.830;8.748;2023-04-03T15:18:07;3.97;;;2.00;;
6626;SDS011;3349;49.830;8.748;2023-04-03T15:20:40;6.47;;;2.40;;
6626;SDS011;3349;49.830;8.748;2023-04-03T15:23:08;4.13;;;2.10;;
6626;SDS011;3349;49.830;8.748;2023-04-03T15:25:36;3.72;;;2.50;;
6626;SDS011;3349;49.830;8.748;2023-04-03T15:28:04;4.15;;;2.45;;
6626;SDS011;3349;49.830;8.748;2023-04-03T15:30:40;3.83;;;2.22;;
6626;SDS011;3349;49.830;8.748;2023-04-03T15:33:08;3.80;;;2.67;;
6626;SDS011;3349;49.830;8.748;2023-04-03T15:35:35;4.45;;;2.72;;
6626;SDS011;3349;49.830;8.748;2023-04-03T15:38:02;3.65;;;2.13;;
6626;SDS011;3349;49.830;8.748;2023-04-03T15:40:29;2.47;;;2.05;;
6626;SDS011;3349;49.830;8.748;2023-04-03T15:42:56;4.53;;;3.15;;
6626;SDS011;3349;49.830;8.748;2023-04-03T15:45:22;4.38;;;2.70;;
6626;SDS011;3349;49.830;8.748;2023-04-03T15:47:51;5.15;;;2.20;;
6626;SDS011;3349;49.830;8.748;2023-04-03T15:50:18;4.43;;;2.78;;